sensor_id;sensor_type;location;lat;lon;timestamp;temperature;humidity
44707;DHT22;30433;45.596;8.408;2022-12-18T00:00:11;5.50;99.90
44707;DHT22;30433;45.596;8.408;2022-12-18T00:06:13;5.50;99.90
44707;DHT22;30433;45.596;8.408;2022-12-18T00:12:16;5.40;99.90
44707;DHT22;30433;45.596;8.408;2022-12-18T00:18:18;5.40;99.90
44707;DHT22;30433;45.596;8.408;2022-12-18T00:24:20;5.50;99.90
44707;DHT22;30433;45.596;8.408;2022-12-18T00:30:23;5.40;99.90
44707;DHT22;30433;45.596;8.408;2022-12-18T00:36:25;5.40;99.90
44707;DHT22;30433;45.596;8.408;2022-12-18T00:42:28;5.40;99.90
44707;DHT22;30433;45.596;8.408;2022-12-18T00:48:57;5.40;99.90
44707;DHT22;30433;45.596;8.408;2022-12-18T00:54:58;5.40;99.90
44707;DHT22;30433;45.596;8.408;2022-12-18T01:01:00;5.30;99.90
44707;DHT22;30433;45.596;8.408;2022-12-18T01:07:03;5.50;99.90
44707;DHT22;30433;45.596;8.408;2022-12-18T01:13:05;5.60;99.90
44707;DHT22;30433;45.596;8.408;2022-12-18T01:19:07;5.50;99.90
44707;DHT22;30433;45.596;8.408;2022-12-18T01:25:10;5.40;99.90
44707;DHT22;30433;45.596;8.408;2022-12-18T01:31:13;5.40;99.90
44707;DHT22;30433;45.596;8.408;2022-12-18T01:37:14;5.50;99.90
44707;DHT22;30433;45.596;8.408;2022-12-18T01:43:18;5.70;99.90
44707;DHT22;30433;45.596;8.408;2022-12-18T01:49:19;5.70;99.90
44707;DHT22;30433;45.596;8.408;2022-12-18T01:55:22;5.70;99.90
44707;DHT22;30433;45.596;8.408;2022-12-18T02:01:26;5.60;99.90
44707;DHT22;30433;45.596;8.408;2022-12-18T02:07:31;5.40;99.90
44707;DHT22;30433;45.596;8.408;2022-12-18T02:13:36;5.20;99.90
44707;DHT22;30433;45.596;8.408;2022-12-18T02:19:44;5.20;99.90
44707;DHT22;30433;45.596;8.408;2022-12-18T02:32:10;5.60;99.90
44707;DHT22;30433;45.596;8.408;2022-12-18T02:38:13;5.50;99.90
44707;DHT22;30433;45.596;8.408;2022-12-18T02:44:16;5.30;99.90
44707;DHT22;30433;45.596;8.408;2022-12-18T02:50:36;5.30;99.90
44707;DHT22;30433;45.596;8.408;2022-12-18T02:56:40;5.30;99.90
44707;DHT22;30433;45.596;8.408;2022-12-18T03:02:45;5.30;99.90
44707;DHT22;30433;45.596;8.408;2022-12-18T03:08:49;5.40;99.90
44707;DHT22;30433;45.596;8.408;2022-12-18T03:14:54;5.40;99.90
44707;DHT22;30433;45.596;8.408;2022-12-18T03:20:58;5.40;99.90
44707;DHT22;30433;45.596;8.408;2022-12-18T03:27:03;5.30;99.90
44707;DHT22;30433;45.596;8.408;2022-12-18T03:33:07;5.40;99.90
44707;DHT22;30433;45.596;8.408;2022-12-18T03:39:10;5.40;99.90
44707;DHT22;30433;45.596;8.408;2022-12-18T03:45:14;5.40;99.90
44707;DHT22;30433;45.596;8.408;2022-12-18T03:51:22;5.60;99.90
44707;DHT22;30433;45.596;8.408;2022-12-18T03:57:27;5.50;99.90
44707;DHT22;30433;45.596;8.408;2022-12-18T04:03:31;5.20;99.90
44707;DHT22;30433;45.596;8.408;2022-12-18T04:09:33;5.20;99.90
44707;DHT22;30433;45.596;8.408;2022-12-18T04:15:35;5.40;99.90
44707;DHT22;30433;45.596;8.408;2022-12-18T04:21:39;5.50;99.90
44707;DHT22;30433;45.596;8.408;2022-12-18T04:27:41;5.40;99.90
44707;DHT22;30433;45.596;8.408;2022-12-18T04:33:42;5.10;99.90
44707;DHT22;30433;45.596;8.408;2022-12-18T04:39:45;5.20;99.90
44707;DHT22;30433;45.596;8.408;2022-12-18T04:45:47;5.30;99.90
44707;DHT22;30433;45.596;8.408;2022-12-18T04:51:49;5.20;99.90
44707;DHT22;30433;45.596;8.408;2022-12-18T04:57:52;5.20;99.90
44707;DHT22;30433;45.596;8.408;2022-12-18T05:03:54;5.20;99.90
44707;DHT22;30433;45.596;8.408;2022-12-18T05:09:56;5.20;99.90
44707;DHT22;30433;45.596;8.408;2022-12-18T05:15:59;5.40;99.90
44707;DHT22;30433;45.596;8.408;2022-12-18T05:22:01;5.30;99.90
44707;DHT22;30433;45.596;8.408;2022-12-18T05:28:03;5.30;99.90
44707;DHT22;30433;45.596;8.408;2022-12-18T05:34:06;5.30;99.90
44707;DHT22;30433;45.596;8.408;2022-12-18T05:40:09;5.30;99.90
44707;DHT22;30433;45.596;8.408;2022-12-18T05:46:11;5.40;99.90
44707;DHT22;30433;45.596;8.408;2022-12-18T05:52:15;5.30;99.90
44707;DHT22;30433;45.596;8.408;2022-12-18T05:58:17;5.30;99.90
44707;DHT22;30433;45.596;8.408;2022-12-18T06:04:18;5.30;99.90
44707;DHT22;30433;45.596;8.408;2022-12-18T06:10:22;5.30;99.90
44707;DHT22;30433;45.596;8.408;2022-12-18T06:16:23;5.30;99.90
44707;DHT22;30433;45.596;8.408;2022-12-18T06:22:25;5.40;99.90
44707;DHT22;30433;45.596;8.408;2022-12-18T06:28:28;5.30;99.90
44707;DHT22;30433;45.596;8.408;2022-12-18T06:34:30;5.30;99.90
44707;DHT22;30433;45.596;8.408;2022-12-18T06:40:32;5.10;99.90
44707;DHT22;30433;45.596;8.408;2022-12-18T06:46:35;5.30;99.90
44707;DHT22;30433;45.596;8.408;2022-12-18T06:52:38;5.30;99.90
44707;DHT22;30433;45.596;8.408;2022-12-18T06:58:40;5.30;99.90
44707;DHT22;30433;45.596;8.408;2022-12-18T07:04:43;5.10;99.90
44707;DHT22;30433;45.596;8.408;2022-12-18T07:10:45;5.10;99.90
44707;DHT22;30433;45.596;8.408;2022-12-18T07:16:49;5.10;99.90
44707;DHT22;30433;45.596;8.408;2022-12-18T07:22:52;4.90;99.90
44707;DHT22;30433;45.596;8.408;2022-12-18T07:28:54;4.80;99.90
44707;DHT22;30433;45.596;8.408;2022-12-18T07:34:56;4.70;99.90
44707;DHT22;30433;45.596;8.408;2022-12-18T07:41:01;4.80;99.90
44707;DHT22;30433;45.596;8.408;2022-12-18T07:47:03;4.80;99.90
44707;DHT22;30433;45.596;8.408;2022-12-18T07:53:05;4.90;99.90
44707;DHT22;30433;45.596;8.408;2022-12-18T07:59:08;4.90;99.90
44707;DHT22;30433;45.596;8.408;2022-12-18T08:05:10;4.90;99.90
44707;DHT22;30433;45.596;8.408;2022-12-18T08:11:12;5.00;99.90
44707;DHT22;30433;45.596;8.408;2022-12-18T08:17:15;5.00;99.90
44707;DHT22;30433;45.596;8.408;2022-12-18T08:23:17;5.00;99.90
44707;DHT22;30433;45.596;8.408;2022-12-18T08:29:18;5.10;99.90
44707;DHT22;30433;45.596;8.408;2022-12-18T08:35:22;5.00;99.90
44707;DHT22;30433;45.596;8.408;2022-12-18T08:41:23;5.10;99.90
44707;DHT22;30433;45.596;8.408;2022-12-18T08:47:25;5.20;99.90
44707;DHT22;30433;45.596;8.408;2022-12-18T08:53:28;5.20;99.90
44707;DHT22;30433;45.596;8.408;2022-12-18T08:59:30;5.30;99.90
44707;DHT22;30433;45.596;8.408;2022-12-18T09:05:32;5.30;99.90
44707;DHT22;30433;45.596;8.408;2022-12-18T09:11:35;5.10;99.90
44707;DHT22;30433;45.596;8.408;2022-12-18T09:17:37;5.10;99.90
44707;DHT22;30433;45.596;8.408;2022-12-18T09:23:39;5.10;99.90
44707;DHT22;30433;45.596;8.408;2022-12-18T09:29:42;5.20;99.90
44707;DHT22;30433;45.596;8.408;2022-12-18T09:35:44;5.20;99.90
44707;DHT22;30433;45.596;8.408;2022-12-18T09:41:47;5.20;99.90
44707;DHT22;30433;45.596;8.408;2022-12-18T09:47:55;5.20;99.90
44707;DHT22;30433;45.596;8.408;2022-12-18T09:53:58;5.30;99.90
44707;DHT22;30433;45.596;8.408;2022-12-18T10:00:04;5.20;99.90
44707;DHT22;30433;45.596;8.408;2022-12-18T10:06:11;5.20;99.90
44707;DHT22;30433;45.596;8.408;2022-12-18T10:12:16;5.30;99.90
44707;DHT22;30433;45.596;8.408;2022-12-18T10:18:24;5.30;99.90
44707;DHT22;30433;45.596;8.408;2022-12-18T10:24:30;5.50;99.90
44707;DHT22;30433;45.596;8.408;2022-12-18T10:30:34;5.50;99.90
44707;DHT22;30433;45.596;8.408;2022-12-18T10:36:36;5.50;99.90
44707;DHT22;30433;45.596;8.408;2022-12-18T10:42:40;5.50;99.90
44707;DHT22;30433;45.596;8.408;2022-12-18T10:48:48;5.60;99.90
44707;DHT22;30433;45.596;8.408;2022-12-18T10:54:52;5.60;99.90
44707;DHT22;30433;45.596;8.408;2022-12-18T11:01:03;5.60;99.90
44707;DHT22;30433;45.596;8.408;2022-12-18T11:07:05;5.70;99.90
44707;DHT22;30433;45.596;8.408;2022-12-18T11:13:09;5.90;99.90
44707;DHT22;30433;45.596;8.408;2022-12-18T11:19:19;5.90;99.90
44707;DHT22;30433;45.596;8.408;2022-12-18T11:25:22;6.00;99.90
44707;DHT22;30433;45.596;8.408;2022-12-18T11:31:25;6.10;99.90
44707;DHT22;30433;45.596;8.408;2022-12-18T11:37:29;6.10;99.90
44707;DHT22;30433;45.596;8.408;2022-12-18T11:43:31;6.10;99.90
44707;DHT22;30433;45.596;8.408;2022-12-18T11:49:35;6.20;99.90
44707;DHT22;30433;45.596;8.408;2022-12-18T11:55:41;6.20;99.90
44707;DHT22;30433;45.596;8.408;2022-12-18T12:01:47;6.30;99.90
44707;DHT22;30433;45.596;8.408;2022-12-18T12:07:50;6.40;99.90
44707;DHT22;30433;45.596;8.408;2022-12-18T12:14:01;6.40;99.90
44707;DHT22;30433;45.596;8.408;2022-12-18T12:20:06;6.40;99.90
44707;DHT22;30433;45.596;8.408;2022-12-18T12:26:11;6.40;99.90
44707;DHT22;30433;45.596;8.408;2022-12-18T12:32:20;6.40;99.90
44707;DHT22;30433;45.596;8.408;2022-12-18T12:38:22;6.60;99.90
44707;DHT22;30433;45.596;8.408;2022-12-18T12:44:26;6.60;99.90
44707;DHT22;30433;45.596;8.408;2022-12-18T12:50:30;6.70;99.90
44707;DHT22;30433;45.596;8.408;2022-12-18T12:56:36;6.80;99.90
44707;DHT22;30433;45.596;8.408;2022-12-18T13:02:42;6.80;99.90
44707;DHT22;30433;45.596;8.408;2022-12-18T13:08:56;6.50;99.90
44707;DHT22;30433;45.596;8.408;2022-12-18T13:15:05;6.50;99.90
44707;DHT22;30433;45.596;8.408;2022-12-18T13:21:15;6.90;99.90
44707;DHT22;30433;45.596;8.408;2022-12-18T13:33:43;7.00;99.90
44707;DHT22;30433;45.596;8.408;2022-12-18T13:39:45;7.00;99.90
44707;DHT22;30433;45.596;8.408;2022-12-18T13:45:48;7.00;99.90
44707;DHT22;30433;45.596;8.408;2022-12-18T13:51:52;7.10;99.90
44707;DHT22;30433;45.596;8.408;2022-12-18T13:58:02;7.00;99.90
44707;DHT22;30433;45.596;8.408;2022-12-18T14:04:11;7.20;99.90
44707;DHT22;30433;45.596;8.408;2022-12-18T14:10:15;7.20;99.90
44707;DHT22;30433;45.596;8.408;2022-12-18T14:16:19;7.10;99.90
44707;DHT22;30433;45.596;8.408;2022-12-18T14:22:21;7.20;99.90
44707;DHT22;30433;45.596;8.408;2022-12-18T14:28:29;7.20;99.90
44707;DHT22;30433;45.596;8.408;2022-12-18T14:34:31;7.20;99.90
44707;DHT22;30433;45.596;8.408;2022-12-18T14:40:33;7.00;99.90
44707;DHT22;30433;45.596;8.408;2022-12-18T14:46:36;6.60;99.90
44707;DHT22;30433;45.596;8.408;2022-12-18T14:52:39;6.70;99.90
44707;DHT22;30433;45.596;8.408;2022-12-18T14:58:44;6.70;99.90
44707;DHT22;30433;45.596;8.408;2022-12-18T15:04:48;6.70;99.90
44707;DHT22;30433;45.596;8.408;2022-12-18T15:11:01;6.70;99.90
44707;DHT22;30433;45.596;8.408;2022-12-18T15:17:04;6.50;99.90
44707;DHT22;30433;45.596;8.408;2022-12-18T15:23:13;6.30;99.90
44707;DHT22;30433;45.596;8.408;2022-12-18T15:29:17;6.00;99.90
44707;DHT22;30433;45.596;8.408;2022-12-18T15:35:24;5.90;99.90
44707;DHT22;30433;45.596;8.408;2022-12-18T15:41:27;5.60;99.90
44707;DHT22;30433;45.596;8.408;2022-12-18T15:47:29;5.40;99.90
44707;DHT22;30433;45.596;8.408;2022-12-18T15:53:33;5.40;99.90
44707;DHT22;30433;45.596;8.408;2022-12-18T15:59:36;4.80;99.90
44707;DHT22;30433;45.596;8.408;2022-12-18T16:05:38;4.50;99.90
44707;DHT22;30433;45.596;8.408;2022-12-18T16:11:42;4.80;99.90
44707;DHT22;30433;45.596;8.408;2022-12-18T16:17:47;4.50;99.90
44707;DHT22;30433;45.596;8.408;2022-12-18T16:23:49;4.00;99.90
44707;DHT22;30433;45.596;8.408;2022-12-18T16:29:51;3.90;99.90
44707;DHT22;30433;45.596;8.408;2022-12-18T16:35:55;3.80;99.90
44707;DHT22;30433;45.596;8.408;2022-12-18T16:41:57;3.70;99.90
44707;DHT22;30433;45.596;8.408;2022-12-18T16:47:59;3.60;99.90
44707;DHT22;30433;45.596;8.408;2022-12-18T16:54:03;2.90;99.90
44707;DHT22;30433;45.596;8.408;2022-12-18T17:00:06;3.50;99.90
44707;DHT22;30433;45.596;8.408;2022-12-18T17:06:08;3.30;99.90
44707;DHT22;30433;45.596;8.408;2022-12-18T17:12:11;3.60;99.90
44707;DHT22;30433;45.596;8.408;2022-12-18T17:18:13;2.90;99.90
44707;DHT22;30433;45.596;8.408;2022-12-18T17:24:15;3.20;99.90
44707;DHT22;30433;45.596;8.408;2022-12-18T17:30:19;2.80;99.90
44707;DHT22;30433;45.596;8.408;2022-12-18T17:36:21;2.20;99.90
44707;DHT22;30433;45.596;8.408;2022-12-18T17:42:23;2.90;99.90
44707;DHT22;30433;45.596;8.408;2022-12-18T17:48:27;2.70;99.90
44707;DHT22;30433;45.596;8.408;2022-12-18T17:54:29;2.80;99.90
44707;DHT22;30433;45.596;8.408;2022-12-18T18:00:30;2.90;99.90
44707;DHT22;30433;45.596;8.408;2022-12-18T18:06:34;3.10;99.90
44707;DHT22;30433;45.596;8.408;2022-12-18T18:12:36;2.30;99.90
44707;DHT22;30433;45.596;8.408;2022-12-18T18:18:56;2.30;99.90
44707;DHT22;30433;45.596;8.408;2022-12-18T18:24:59;1.60;99.90
44707;DHT22;30433;45.596;8.408;2022-12-18T18:31:02;1.60;99.90
44707;DHT22;30433;45.596;8.408;2022-12-18T18:37:04;1.90;99.90
44707;DHT22;30433;45.596;8.408;2022-12-18T18:43:08;2.30;99.90
44707;DHT22;30433;45.596;8.408;2022-12-18T18:49:10;1.80;99.90
44707;DHT22;30433;45.596;8.408;2022-12-18T18:55:13;1.30;99.90
44707;DHT22;30433;45.596;8.408;2022-12-18T19:01:17;1.80;99.90
44707;DHT22;30433;45.596;8.408;2022-12-18T19:07:20;2.10;99.90
44707;DHT22;30433;45.596;8.408;2022-12-18T19:13:23;2.00;99.90
44707;DHT22;30433;45.596;8.408;2022-12-18T19:19:27;1.20;99.90
44707;DHT22;30433;45.596;8.408;2022-12-18T19:25:29;1.10;99.90
44707;DHT22;30433;45.596;8.408;2022-12-18T19:31:33;1.80;99.90
44707;DHT22;30433;45.596;8.408;2022-12-18T19:37:37;2.00;99.90
44707;DHT22;30433;45.596;8.408;2022-12-18T19:43:39;2.00;99.90
44707;DHT22;30433;45.596;8.408;2022-12-18T19:49:41;1.50;99.90
44707;DHT22;30433;45.596;8.408;2022-12-18T19:55:44;1.10;99.90
44707;DHT22;30433;45.596;8.408;2022-12-18T20:01:46;1.10;99.90
44707;DHT22;30433;45.596;8.408;2022-12-18T20:07:49;1.80;99.90
44707;DHT22;30433;45.596;8.408;2022-12-18T20:13:53;1.60;99.90
44707;DHT22;30433;45.596;8.408;2022-12-18T20:19:55;1.80;99.90
44707;DHT22;30433;45.596;8.408;2022-12-18T20:25:57;1.80;99.90
44707;DHT22;30433;45.596;8.408;2022-12-18T20:32:01;1.60;99.90
44707;DHT22;30433;45.596;8.408;2022-12-18T20:38:03;1.50;99.90
44707;DHT22;30433;45.596;8.408;2022-12-18T20:44:05;1.00;99.90
44707;DHT22;30433;45.596;8.408;2022-12-18T20:50:09;1.50;99.90
44707;DHT22;30433;45.596;8.408;2022-12-18T20:56:12;1.10;99.90
44707;DHT22;30433;45.596;8.408;2022-12-18T21:02:15;1.40;99.90
44707;DHT22;30433;45.596;8.408;2022-12-18T21:14:42;1.30;99.90
44707;DHT22;30433;45.596;8.408;2022-12-18T21:20:44;1.60;99.90
44707;DHT22;30433;45.596;8.408;2022-12-18T21:26:46;1.60;99.90
44707;DHT22;30433;45.596;8.408;2022-12-18T21:32:50;1.10;99.90
44707;DHT22;30433;45.596;8.408;2022-12-18T21:38:52;1.00;99.90
44707;DHT22;30433;45.596;8.408;2022-12-18T21:44:54;1.60;99.90
44707;DHT22;30433;45.596;8.408;2022-12-18T21:50:57;1.50;99.90
44707;DHT22;30433;45.596;8.408;2022-12-18T21:57:00;1.60;99.90
44707;DHT22;30433;45.596;8.408;2022-12-18T22:03:02;0.70;99.90
44707;DHT22;30433;45.596;8.408;2022-12-18T22:09:07;0.70;99.90
44707;DHT22;30433;45.596;8.408;2022-12-18T22:15:09;1.10;99.90
44707;DHT22;30433;45.596;8.408;2022-12-18T22:21:18;1.50;99.90
44707;DHT22;30433;45.596;8.408;2022-12-18T22:27:23;1.40;99.90
44707;DHT22;30433;45.596;8.408;2022-12-18T22:33:25;1.50;99.90
44707;DHT22;30433;45.596;8.408;2022-12-18T22:39:27;1.50;99.90
44707;DHT22;30433;45.596;8.408;2022-12-18T22:45:31;1.60;99.90
44707;DHT22;30433;45.596;8.408;2022-12-18T22:51:33;1.50;99.90
44707;DHT22;30433;45.596;8.408;2022-12-18T22:57:34;1.30;99.90
44707;DHT22;30433;45.596;8.408;2022-12-18T23:03:38;1.70;99.90
44707;DHT22;30433;45.596;8.408;2022-12-18T23:09:40;1.70;99.90
44707;DHT22;30433;45.596;8.408;2022-12-18T23:15:41;1.60;99.90
44707;DHT22;30433;45.596;8.408;2022-12-18T23:21:45;1.50;99.90
44707;DHT22;30433;45.596;8.408;2022-12-18T23:27:47;1.40;99.90
44707;DHT22;30433;45.596;8.408;2022-12-18T23:33:49;1.60;99.90
44707;DHT22;30433;45.596;8.408;2022-12-18T23:39:52;1.90;99.90
44707;DHT22;30433;45.596;8.408;2022-12-18T23:45:54;2.00;99.90
44707;DHT22;30433;45.596;8.408;2022-12-18T23:51:56;1.60;99.90
44707;DHT22;30433;45.596;8.408;2022-12-18T23:57:59;1.80;99.90
